createdAt,value
2023-04-02T00:00:26.451Z,79.85
2023-04-02T00:03:54.174Z,79.91
2023-04-02T00:07:30.901Z,79.93
2023-04-02T00:10:37.888Z,79.95
2023-04-02T00:13:47.002Z,79.90
2023-04-02T00:16:52.143Z,79.89
2023-04-02T00:20:09.050Z,79.90
2023-04-02T00:23:14.353Z,79.89
2023-04-02T00:26:21.948Z,79.88
2023-04-02T00:29:25.241Z,79.89
2023-04-02T00:32:33.064Z,79.91
2023-04-02T00:35:39.171Z,79.88
2023-04-02T00:38:44.286Z,79.92
2023-04-02T00:41:48.955Z,79.95
2023-04-02T00:44:54.826Z,79.96
2023-04-02T00:48:00.518Z,79.99
2023-04-02T00:51:24.702Z,80.01
2023-04-02T00:54:32.813Z,80.04
2023-04-02T00:57:36.632Z,80.02
2023-04-02T01:00:40.450Z,80.03
2023-04-02T01:03:45.148Z,80.07
2023-04-02T01:06:53.679Z,80.05
2023-04-02T01:10:21.055Z,80.07
2023-04-02T01:13:36.522Z,80.08
2023-04-02T01:16:54.976Z,80.08
2023-04-02T01:20:36.690Z,80.10
2023-04-02T01:23:53.031Z,80.07
2023-04-02T01:26:57.681Z,80.04
2023-04-02T01:30:03.202Z,80.04
2023-04-02T01:33:07.272Z,80.06
2023-04-02T01:36:28.442Z,80.06
2023-04-02T01:39:52.061Z,80.08
2023-04-02T01:43:09.949Z,80.03
2023-04-02T01:46:29.742Z,79.99
2023-04-02T01:49:33.322Z,79.97
2023-04-02T01:52:45.148Z,79.91
2023-04-02T01:56:02.808Z,79.85
2023-04-02T01:59:07.204Z,79.76
2023-04-02T02:02:14.228Z,79.75
2023-04-02T02:05:21.178Z,79.77
2023-04-02T02:08:34.651Z,79.73
2023-04-02T02:11:39.058Z,79.73
2023-04-02T02:14:50.896Z,79.69
2023-04-02T02:18:03.175Z,79.65
2023-04-02T02:21:08.418Z,79.56
2023-04-02T02:24:33.051Z,79.56
2023-04-02T02:27:42.126Z,79.59
2023-04-02T02:31:02.974Z,79.59
2023-04-02T02:34:12.720Z,79.57
2023-04-02T02:37:24.961Z,79.58
2023-04-02T02:40:39.643Z,79.61
2023-04-02T02:43:52.252Z,79.62
2023-04-02T02:47:02.472Z,79.60
2023-04-02T02:50:12.812Z,79.61
2023-04-02T02:53:20.578Z,79.62
2023-04-02T02:56:24.960Z,79.61
2023-04-02T02:59:31.382Z,79.66
2023-04-02T03:02:38.707Z,79.64
2023-04-02T03:05:42.896Z,79.68
2023-04-02T03:09:00.056Z,79.69
2023-04-02T03:12:23.880Z,79.68
2023-04-02T03:15:37.060Z,79.73
2023-04-02T03:18:47.254Z,79.71
2023-04-02T03:22:15.854Z,79.69
2023-04-02T03:25:37.582Z,79.66
2023-04-02T03:28:55.159Z,79.64
2023-04-02T03:32:31.189Z,79.60
2023-04-02T03:35:42.980Z,79.60
2023-04-02T03:39:22.957Z,79.53
2023-04-02T03:42:37.273Z,79.46
2023-04-02T03:45:44.184Z,79.40
2023-04-02T03:48:53.083Z,79.37
2023-04-02T03:52:04.593Z,79.34
2023-04-02T03:55:37.057Z,79.31
2023-04-02T03:58:47.150Z,79.27
2023-04-02T04:01:59.945Z,79.18
2023-04-02T04:05:04.450Z,79.11
2023-04-02T04:08:15.404Z,79.11
2023-04-02T04:11:27.546Z,79.01
2023-04-02T04:14:37.370Z,78.89
2023-04-02T04:18:05.960Z,78.90
2023-04-02T04:21:37.854Z,78.78
2023-04-02T04:25:05.945Z,78.76
2023-04-02T04:28:26.167Z,78.77
2023-04-02T04:31:41.411Z,78.70
2023-04-02T04:34:53.655Z,78.60
2023-04-02T04:38:14.527Z,78.64
2023-04-02T04:41:24.657Z,78.55
2023-04-02T04:44:51.622Z,78.43
2023-04-02T04:48:21.807Z,78.40
2023-04-02T04:51:29.743Z,78.29
2023-04-02T04:54:38.776Z,78.16
2023-04-02T04:57:43.239Z,78.04
2023-04-02T05:01:08.121Z,77.88
2023-04-02T05:04:21.892Z,77.79
2023-04-02T05:07:27.952Z,77.71
2023-04-02T05:10:41.094Z,77.62
2023-04-02T05:13:53.895Z,77.44
2023-04-02T05:17:10.062Z,77.38
2023-04-02T05:20:16.575Z,77.18
2023-04-02T05:23:28.237Z,77.07
2023-04-02T05:26:42.177Z,76.97
2023-04-02T05:29:50.328Z,76.74
2023-04-02T05:33:05.144Z,76.46
2023-04-02T05:36:11.768Z,76.33
2023-04-02T05:39:24.697Z,76.20
2023-04-02T05:42:36.000Z,76.18
2023-04-02T05:45:51.926Z,76.08
2023-04-02T05:48:58.540Z,75.95
2023-04-02T05:52:06.365Z,75.89
2023-04-02T05:55:12.611Z,75.80
2023-04-02T05:58:37.293Z,75.61
2023-04-02T06:02:06.511Z,75.54
2023-04-02T06:05:17.341Z,75.46
2023-04-02T06:08:27.448Z,75.40
2023-04-02T06:11:42.212Z,75.34
2023-04-02T06:14:46.563Z,75.23
2023-04-02T06:17:50.862Z,75.10
2023-04-02T06:20:54.996Z,75.01
2023-04-02T06:24:03.390Z,75.01
2023-04-02T06:27:14.918Z,74.90
2023-04-02T06:30:24.685Z,74.91
2023-04-02T06:33:29.054Z,74.95
2023-04-02T06:36:33.129Z,74.83
2023-04-02T06:39:40.016Z,74.84
2023-04-02T06:42:45.665Z,74.86
2023-04-02T06:46:20.744Z,74.78
2023-04-02T06:49:47.188Z,74.82
2023-04-02T06:52:53.909Z,74.84
2023-04-02T06:56:10.597Z,74.71
2023-04-02T06:59:15.803Z,74.60
2023-04-02T07:02:37.445Z,74.56
2023-04-02T07:05:43.262Z,74.39
2023-04-02T07:08:46.839Z,74.39
2023-04-02T07:11:50.945Z,74.31
2023-04-02T07:14:54.892Z,74.22
2023-04-02T07:17:59.801Z,74.29
2023-04-02T07:21:03.338Z,74.21
2023-04-02T07:24:07.103Z,74.27
2023-04-02T07:27:11.799Z,74.03
2023-04-02T07:30:15.467Z,73.85
2023-04-02T07:33:22.741Z,73.77
2023-04-02T07:36:28.852Z,73.58
2023-04-02T07:39:33.778Z,73.36
2023-04-02T07:42:38.036Z,73.32
2023-04-02T07:45:41.391Z,73.37
2023-04-02T07:48:45.337Z,73.22
2023-04-02T07:51:48.888Z,73.15
2023-04-02T07:54:52.084Z,73.12
2023-04-02T07:58:00.156Z,73.10
2023-04-02T08:01:04.467Z,73.05
2023-04-02T08:04:22.402Z,72.97
2023-04-02T08:07:28.226Z,73.02
2023-04-02T08:10:31.753Z,73.11
2023-04-02T08:13:35.005Z,72.93
2023-04-02T08:16:52.842Z,72.79
2023-04-02T08:20:01.077Z,72.75
2023-04-02T08:23:07.106Z,72.84
2023-04-02T08:26:10.591Z,72.99
2023-04-02T08:29:13.711Z,72.98
2023-04-02T08:32:17.016Z,73.07
2023-04-02T08:35:20.212Z,73.23
2023-04-02T08:38:23.343Z,73.22
2023-04-02T08:41:32.294Z,73.22
2023-04-02T08:45:21.151Z,73.22
2023-04-02T08:48:32.696Z,73.36
2023-04-02T08:51:36.931Z,73.31
2023-04-02T08:54:43.892Z,73.35
2023-04-02T08:57:59.079Z,73.40
2023-04-02T09:01:06.044Z,73.32
2023-04-02T09:04:19.048Z,73.34
2023-04-02T09:07:22.738Z,73.37
2023-04-02T09:10:55.664Z,73.47
2023-04-02T09:14:02.218Z,73.61
2023-04-02T09:17:16.779Z,73.56
2023-04-02T09:20:26.507Z,73.55
2023-04-02T09:23:34.035Z,73.70
2023-04-02T09:26:38.089Z,73.73
2023-04-02T09:29:49.480Z,73.79
2023-04-02T09:32:57.203Z,73.92
2023-04-02T09:36:00.778Z,74.05
2023-04-02T09:39:27.198Z,74.14
2023-04-02T09:42:35.124Z,74.24
2023-04-02T09:45:54.773Z,74.23
2023-04-02T09:49:02.312Z,74.28
2023-04-02T09:52:19.377Z,74.23
2023-04-02T09:55:27.152Z,74.17
2023-04-02T09:58:30.516Z,74.16
2023-04-02T10:01:58.925Z,74.21
2023-04-02T10:05:04.834Z,74.29
2023-04-02T10:08:28.493Z,74.27
2023-04-02T10:11:46.405Z,74.33
2023-04-02T10:14:51.447Z,74.39
2023-04-02T10:18:03.766Z,74.36
2023-04-02T10:21:08.061Z,74.47
2023-04-02T10:24:16.267Z,74.46
2023-04-02T10:27:39.607Z,74.53
2023-04-02T10:30:58.561Z,74.66
2023-04-02T10:34:10.067Z,74.71
2023-04-02T10:37:39.422Z,74.72
2023-04-02T10:40:51.727Z,74.66
2023-04-02T10:44:20.038Z,74.87
2023-04-02T10:47:32.680Z,74.85
2023-04-02T10:51:06.792Z,74.80
2023-04-02T10:54:34.308Z,74.68
2023-04-02T10:57:47.948Z,74.85
2023-04-02T11:00:59.753Z,74.97
2023-04-02T11:04:37.003Z,74.86
2023-04-02T11:08:04.576Z,74.79
2023-04-02T11:11:13.468Z,74.78
2023-04-02T11:14:34.373Z,74.76
2023-04-02T11:17:38.636Z,74.68
2023-04-02T11:20:44.040Z,74.63
2023-04-02T11:24:25.059Z,74.66
2023-04-02T11:27:31.445Z,74.68
2023-04-02T11:30:34.935Z,74.63
2023-04-02T11:33:44.703Z,74.57
2023-04-02T11:36:52.707Z,74.57
2023-04-02T11:39:58.325Z,74.56
2023-04-02T11:43:32.958Z,74.56
2023-04-02T11:50:30.106Z,74.52
2023-04-02T11:53:35.040Z,74.47
2023-04-02T11:56:52.369Z,74.48
2023-04-02T12:00:12.919Z,74.39
2023-04-02T12:03:30.532Z,74.52
2023-04-02T12:06:48.704Z,79.00
2023-04-02T12:09:55.518Z,80.09
2023-04-02T12:12:58.978Z,79.73
2023-04-02T12:16:02.679Z,78.09
2023-04-02T12:19:09.566Z,76.76
2023-04-02T12:22:22.333Z,75.85
2023-04-02T12:25:40.837Z,75.38
2023-04-02T12:28:46.504Z,75.09
2023-04-02T12:31:49.854Z,74.85
2023-04-02T12:34:54.678Z,74.73
2023-04-02T12:37:58.119Z,74.53
2023-04-02T12:41:05.026Z,74.40
2023-04-02T12:44:21.840Z,74.37
2023-04-02T12:47:26.428Z,74.28
2023-04-02T12:50:29.723Z,74.32
2023-04-02T12:53:41.292Z,74.34
2023-04-02T12:56:44.851Z,74.34
2023-04-02T12:59:48.205Z,74.29
2023-04-02T13:03:06.625Z,74.31
2023-04-02T13:06:23.444Z,74.30
2023-04-02T13:09:45.158Z,74.24
2023-04-02T13:12:48.308Z,74.14
2023-04-02T13:16:12.774Z,74.24
2023-04-02T13:19:33.346Z,74.33
2023-04-02T13:22:36.655Z,74.22
2023-04-02T13:25:39.780Z,74.14
2023-04-02T13:28:59.372Z,73.91
2023-04-02T13:32:13.280Z,73.80
2023-04-02T13:35:16.844Z,73.73
2023-04-02T13:38:19.921Z,73.65
2023-04-02T13:41:26.501Z,73.75
2023-04-02T13:44:32.020Z,73.76
2023-04-02T13:47:35.163Z,73.85
2023-04-02T13:50:38.463Z,73.89
2023-04-02T13:53:42.242Z,73.92
2023-04-02T13:56:45.711Z,73.94
2023-04-02T13:59:48.829Z,73.90
2023-04-02T14:02:57.760Z,73.84
2023-04-02T14:06:52.708Z,73.82
2023-04-02T14:10:01.951Z,73.94
2023-04-02T14:13:28.163Z,74.04
2023-04-02T14:16:37.249Z,73.91
2023-04-02T14:19:48.910Z,73.82
2023-04-02T14:23:11.664Z,73.74
2023-04-02T14:26:26.391Z,73.75
2023-04-02T14:29:48.069Z,73.65
2023-04-02T14:32:53.841Z,73.54
2023-04-02T14:36:31.177Z,73.57
2023-04-02T14:39:56.475Z,73.58
2023-04-02T14:43:17.694Z,73.55
2023-04-02T14:46:26.633Z,73.41
2023-04-02T14:49:40.027Z,73.44
2023-04-02T14:52:47.492Z,73.40
2023-04-02T14:55:52.814Z,73.45
2023-04-02T14:59:23.260Z,73.46
2023-04-02T15:02:44.846Z,73.39
2023-04-02T15:05:52.779Z,73.29
2023-04-02T15:09:09.409Z,73.22
2023-04-02T15:12:22.724Z,73.09
2023-04-02T15:15:39.365Z,72.94
2023-04-02T15:18:43.355Z,72.92
2023-04-02T15:22:16.724Z,72.89
2023-04-02T15:25:27.598Z,72.82
2023-04-02T15:28:39.491Z,72.64
2023-04-02T15:31:46.110Z,72.56
2023-04-02T15:35:01.313Z,72.53
2023-04-02T15:38:22.924Z,72.43
2023-04-02T15:41:27.915Z,72.44
2023-04-02T15:44:31.023Z,72.35
2023-04-02T15:47:45.945Z,72.29
2023-04-02T15:51:05.321Z,72.27
2023-04-02T15:54:19.889Z,72.25
2023-04-02T15:57:26.214Z,72.14
2023-04-02T16:00:32.740Z,72.04
2023-04-02T16:03:54.469Z,72.01
2023-04-02T16:07:19.244Z,72.06
2023-04-02T16:10:40.123Z,72.11
2023-04-02T16:13:47.481Z,72.19
2023-04-02T16:16:52.456Z,72.34
2023-04-02T16:20:40.373Z,72.37
2023-04-02T16:23:43.615Z,72.45
2023-04-02T16:27:15.082Z,72.54
2023-04-02T16:34:34.462Z,72.72
2023-04-02T16:37:48.783Z,72.88
2023-04-02T16:41:14.791Z,73.05
2023-04-02T16:44:42.028Z,73.17
2023-04-02T16:47:57.092Z,73.27
2023-04-02T16:51:13.601Z,73.34
2023-04-02T16:54:22.736Z,73.45
2023-04-02T16:57:44.778Z,73.63
2023-04-02T17:00:56.734Z,73.63
2023-04-02T17:04:08.999Z,76.03
2023-04-02T17:07:12.228Z,76.20
2023-04-02T17:10:42.112Z,75.82
2023-04-02T17:13:51.921Z,75.25
2023-04-02T17:17:01.413Z,74.87
2023-04-02T17:20:14.181Z,74.64
2023-04-02T17:23:21.066Z,74.52
2023-04-02T17:26:35.518Z,74.30
2023-04-02T17:29:43.621Z,74.28
2023-04-02T17:32:46.850Z,74.21
2023-04-02T17:35:52.806Z,74.21
2023-04-02T17:39:23.705Z,74.19
2023-04-02T17:42:54.701Z,74.21
2023-04-02T17:46:06.421Z,74.19
2023-04-02T17:49:15.004Z,74.28
2023-04-02T17:52:29.003Z,74.31
2023-04-02T17:55:34.617Z,74.34
2023-04-02T17:59:05.135Z,74.29
2023-04-02T18:02:17.164Z,74.34
2023-04-02T18:05:44.503Z,74.32
2023-04-02T18:08:48.636Z,74.31
2023-04-02T18:12:01.780Z,74.28
2023-04-02T18:15:46.430Z,74.28
2023-04-02T18:19:06.103Z,74.35
2023-04-02T18:22:15.108Z,74.36
2023-04-02T18:25:59.874Z,74.46
2023-04-02T18:29:31.282Z,74.40
2023-04-02T18:32:52.921Z,74.35
2023-04-02T18:36:26.548Z,74.39
2023-04-02T18:39:29.800Z,74.38
2023-04-02T18:43:00.770Z,74.40
2023-04-02T18:46:07.027Z,74.42
2023-04-02T18:49:28.967Z,74.41
2023-04-02T18:52:32.355Z,74.39
2023-04-02T18:55:35.922Z,74.39
2023-04-02T18:58:49.423Z,74.44
2023-04-02T19:01:54.925Z,74.54
2023-04-02T19:05:05.741Z,74.59
2023-04-02T19:08:18.074Z,74.55
2023-04-02T19:11:29.398Z,74.55
2023-04-02T19:14:32.452Z,74.53
2023-04-02T19:17:59.184Z,74.55
2023-04-02T19:21:29.899Z,74.61
2023-04-02T19:25:04.073Z,74.74
2023-04-02T19:28:07.777Z,74.74
2023-04-02T19:31:27.060Z,74.67
2023-04-02T19:35:07.134Z,74.65
2023-04-02T19:38:25.223Z,74.62
2023-04-02T19:41:49.775Z,74.66
2023-04-02T19:44:54.460Z,74.54
2023-04-02T19:48:00.837Z,74.44
2023-04-02T19:51:04.649Z,74.47
2023-04-02T19:54:07.822Z,74.47
2023-04-02T19:57:15.618Z,74.51
2023-04-02T20:00:19.352Z,74.46
2023-04-02T20:03:23.111Z,74.52
2023-04-02T20:06:26.253Z,74.48
2023-04-02T20:09:29.921Z,74.44
2023-04-02T20:12:32.942Z,74.39
2023-04-02T20:15:36.794Z,74.44
2023-04-02T20:18:40.072Z,74.42
2023-04-02T20:21:43.290Z,74.45
2023-04-02T20:24:46.426Z,74.55
2023-04-02T20:27:49.523Z,74.57
2023-04-02T20:30:52.888Z,74.57
2023-04-02T20:33:57.506Z,74.47
2023-04-02T20:37:00.707Z,74.48
2023-04-02T20:40:05.025Z,74.45
2023-04-02T20:43:09.858Z,74.51
2023-04-02T20:46:13.076Z,74.50
2023-04-02T20:49:17.116Z,74.44
2023-04-02T20:52:20.268Z,74.40
2023-04-02T20:55:23.372Z,74.36
2023-04-02T20:58:26.600Z,74.39
2023-04-02T21:01:30.965Z,74.43
2023-04-02T21:04:34.151Z,74.36
2023-04-02T21:07:37.281Z,74.42
2023-04-02T21:10:41.267Z,74.36
2023-04-02T21:13:44.954Z,74.31
2023-04-02T21:16:48.079Z,74.33
2023-04-02T21:19:51.217Z,74.30
2023-04-02T21:22:54.350Z,74.34
2023-04-02T21:25:59.621Z,74.34
2023-04-02T21:29:03.783Z,74.31
2023-04-02T21:32:20.411Z,74.26
2023-04-02T21:35:24.215Z,74.29
2023-04-02T21:38:27.324Z,74.29
2023-04-02T21:41:42.569Z,74.31
2023-04-02T21:44:45.743Z,74.32
2023-04-02T21:47:48.896Z,74.27
2023-04-02T21:50:52.025Z,74.27
2023-04-02T21:53:55.739Z,74.19
2023-04-02T21:56:59.671Z,74.14
2023-04-02T22:00:08.189Z,74.13
2023-04-02T22:03:13.643Z,74.19
2023-04-02T22:06:22.880Z,74.27
2023-04-02T22:09:26.847Z,74.31
2023-04-02T22:12:29.980Z,74.34
2023-04-02T22:15:33.764Z,74.37
2023-04-02T22:18:38.595Z,74.36
2023-04-02T22:21:42.795Z,74.39
2023-04-02T22:24:46.421Z,74.40
2023-04-02T22:27:51.949Z,74.34
2023-04-02T22:30:56.579Z,74.28
2023-04-02T22:33:59.694Z,74.30
2023-04-02T22:37:02.814Z,74.30
2023-04-02T22:40:06.925Z,74.34
2023-04-02T22:43:10.042Z,74.33
2023-04-02T22:46:15.480Z,74.28
2023-04-02T22:49:19.523Z,74.26
2023-04-02T22:52:22.869Z,74.23
2023-04-02T22:55:26.720Z,74.27
2023-04-02T22:58:29.875Z,74.29
2023-04-02T23:01:35.827Z,74.30
2023-04-02T23:04:39.057Z,74.32
2023-04-02T23:07:42.181Z,74.34
2023-04-02T23:10:45.256Z,74.35
2023-04-02T23:13:49.994Z,74.36
2023-04-02T23:16:53.042Z,74.41
2023-04-02T23:19:56.121Z,74.37
2023-04-02T23:22:59.186Z,74.40
2023-04-02T23:26:12.373Z,74.39
2023-04-02T23:29:15.622Z,74.42
2023-04-02T23:32:19.667Z,74.41
2023-04-02T23:35:22.689Z,74.40
2023-04-02T23:38:26.800Z,74.38
2023-04-02T23:41:31.375Z,74.34
2023-04-02T23:44:34.469Z,74.28
2023-04-02T23:47:37.667Z,74.27
2023-04-02T23:50:40.811Z,74.24
2023-04-02T23:53:43.883Z,74.25
2023-04-02T23:56:47.357Z,74.31
2023-04-02T23:59:50.754Z,74.32
